Intervale, New Hampshire
Current Conditions -  °F | °C
As of 7:54 AM on Friday 19 Dec 2014 (Local Time) from KIZG Reporting Station
Clear Clear  
Wind Chill: 20°   Ceiling: Unl
Heat Index: 20°   Visibility: 10mi
Dew Point: 18°   Wind: 0mph
Humidity: 92%   Direction: NA
Pressure: 29.88"   Gusts: NA
Location:  44.07°N, 71.14°W
Report Text: KIZG 191254Z AUTO 00000KT 10SM CLR M07/M08 A2988 RMK AO2 SLP125 I1000 T10671078
Loading
Personal Weather Stations






























Interactive Weather Map New forecast layout! Learn more

10-Day Weather Forecast

Advertisements
Track Severe Weather on mobile